createdAt,value
2019-02-26T04:26:35.215Z,3.10
2019-02-26T04:29:17.184Z,3.20
2019-02-26T04:31:59.248Z,3.30
2019-02-26T04:34:41.686Z,3.20
2019-02-26T04:37:24.896Z,3.10
2019-02-26T04:40:30.258Z,3.10
2019-02-26T04:43:12.893Z,3.10
2019-02-26T04:45:57.223Z,3.30
2019-02-26T04:48:38.187Z,3.30
2019-02-26T04:51:20.378Z,3.10
2019-02-26T04:54:02.637Z,3.20
2019-02-26T04:56:45.657Z,3.20
2019-02-26T04:59:17.016Z,3.50
2019-02-26T05:02:05.794Z,3.40
2019-02-26T05:04:47.883Z,3.30
2019-02-26T05:07:30.133Z,3.40
2019-02-26T05:10:12.342Z,3.30
2019-02-26T05:12:57.252Z,3.40
2019-02-26T05:15:38.198Z,3.50
2019-02-26T05:18:23.085Z,3.50
2019-02-26T05:21:07.500Z,3.30
2019-02-26T05:23:49.367Z,3.00
2019-02-26T05:26:30.536Z,3.00
2019-02-26T05:29:11.994Z,3.00
2019-02-26T05:31:55.615Z,3.30
2019-02-26T05:38:06.810Z,3.50
2019-02-26T05:40:50.037Z,3.30
2019-02-26T05:43:33.899Z,3.00
2019-02-26T05:46:15.927Z,2.90
2019-02-26T05:48:57.620Z,3.00
2019-02-26T05:51:39.624Z,3.10
2019-02-26T05:54:24.371Z,3.20
2019-02-26T05:57:06.664Z,3.50
2019-02-26T05:59:49.274Z,3.30
2019-02-26T06:02:31.234Z,3.00
2019-02-26T06:05:14.437Z,3.20
2019-02-26T06:07:57.418Z,3.20
2019-02-26T06:10:39.501Z,3.20
2019-02-26T06:13:21.354Z,3.20
2019-02-26T06:16:05.360Z,2.90
2019-02-26T06:18:48.880Z,2.90
2019-02-26T06:21:30.457Z,3.00
2019-02-26T06:24:12.583Z,3.20
2019-02-26T06:26:54.849Z,3.40
2019-02-26T06:29:37.473Z,3.50
2019-02-26T06:32:19.537Z,3.70
2019-02-26T06:34:49.806Z,3.80
2019-02-26T06:37:40.254Z,3.90
2019-02-26T06:40:32.397Z,3.50
2019-02-26T06:43:12.448Z,3.30
2019-02-26T06:45:54.477Z,3.60
2019-02-26T06:48:36.566Z,3.70
2019-02-26T06:51:19.520Z,3.90
2019-02-26T06:54:02.743Z,4.00
2019-02-26T06:56:48.506Z,4.00
2019-02-26T06:59:33.804Z,3.70
2019-02-26T07:02:14.660Z,3.60
2019-02-26T07:04:56.633Z,3.50
2019-02-26T07:07:38.916Z,3.50
2019-02-26T07:10:24.268Z,3.70
2019-02-26T07:13:08.851Z,3.50
2019-02-26T07:15:51.788Z,3.50
2019-02-26T07:21:22.817Z,3.30
2019-02-26T07:27:13.947Z,2.90
2019-02-26T07:29:55.918Z,3.10
2019-02-26T07:32:38.344Z,3.10
2019-02-26T07:35:21.146Z,3.20
2019-02-26T07:38:03.629Z,3.20
2019-02-26T07:40:45.828Z,3.10
2019-02-26T07:43:28.673Z,3.00
2019-02-26T07:46:12.681Z,3.20
2019-02-26T07:48:59.895Z,3.20
2019-02-26T07:51:43.082Z,3.30
2019-02-26T07:54:28.598Z,3.30
2019-02-26T07:57:10.081Z,3.40
2019-02-26T07:59:52.522Z,3.40
2019-02-26T08:02:35.398Z,3.60
2019-02-26T08:05:28.339Z,3.70
2019-02-26T08:08:11.906Z,3.80
2019-02-26T08:10:54.122Z,3.80
2019-02-26T08:13:36.640Z,4.10
2019-02-26T08:16:20.667Z,4.20
2019-02-26T08:19:07.906Z,4.00
2019-02-26T08:21:50.424Z,4.00
2019-02-26T08:24:34.684Z,4.10
2019-02-26T08:30:12.638Z,4.30
2019-02-26T08:32:56.402Z,4.40
2019-02-26T08:35:40.238Z,4.40
2019-02-26T08:38:29.439Z,4.60
2019-02-26T08:41:10.716Z,4.90
2019-02-26T08:43:54.545Z,4.90
2019-02-26T08:46:37.885Z,5.00
2019-02-26T08:49:22.532Z,5.30
2019-02-26T08:52:04.965Z,5.20
2019-02-26T08:54:50.367Z,5.30
2019-02-26T09:00:58.594Z,5.50
2019-02-26T09:03:43.091Z,5.50
2019-02-26T09:06:25.731Z,5.60
2019-02-26T09:09:10.621Z,5.70
2019-02-26T09:15:19.639Z,6.00
2019-02-26T09:18:02.074Z,6.00
2019-02-26T09:20:45.162Z,6.00
2019-02-26T09:23:28.796Z,6.20
2019-02-26T09:26:11.730Z,6.30
2019-02-26T09:28:55.401Z,6.40
2019-02-26T09:31:39.553Z,6.50
2019-02-26T09:34:21.481Z,6.70
2019-02-26T09:37:05.742Z,7.00
2019-02-26T09:39:48.064Z,7.00
2019-02-26T09:42:32.348Z,7.30
2019-02-26T09:45:15.902Z,7.40
2019-02-26T09:51:14.747Z,7.60
2019-02-26T09:53:58.849Z,7.80
2019-02-26T09:56:40.643Z,8.10
2019-02-26T09:59:22.411Z,8.30
2019-02-26T10:05:30.053Z,8.80
2019-02-26T10:08:03.430Z,9.10
2019-02-26T10:11:11.209Z,9.40
2019-02-26T10:13:53.003Z,9.50
2019-02-26T10:16:34.935Z,9.80
2019-02-26T10:19:17.668Z,9.90
2019-02-26T10:22:05.490Z,10.10
2019-02-26T10:24:44.895Z,10.30
2019-02-26T10:27:28.478Z,10.30
2019-02-26T10:30:13.375Z,10.30
2019-02-26T10:32:54.618Z,10.30
2019-02-26T10:35:39.624Z,10.50
2019-02-26T10:38:21.060Z,10.70
2019-02-26T10:41:05.050Z,10.80
2019-02-26T10:43:47.502Z,10.90
2019-02-26T10:46:32.237Z,11.10
2019-02-26T10:49:14.936Z,11.30
2019-02-26T10:54:43.613Z,11.50
2019-02-26T10:57:28.790Z,11.60
2019-02-26T11:00:10.841Z,11.40
2019-02-26T11:02:56.105Z,11.40
2019-02-26T11:05:39.770Z,11.70
2019-02-26T11:08:24.497Z,11.70
2019-02-26T11:11:08.137Z,11.90
2019-02-26T11:13:51.952Z,11.70
2019-02-26T11:16:35.819Z,11.60
2019-02-26T11:19:18.199Z,11.50
2019-02-26T11:22:03.882Z,11.60
2019-02-26T11:27:52.820Z,11.60
2019-02-26T11:30:35.485Z,11.50
2019-02-26T11:33:19.429Z,11.40
2019-02-26T11:36:05.537Z,11.50
2019-02-26T11:38:48.797Z,11.50
2019-02-26T11:41:19.932Z,11.40
2019-02-26T11:44:07.167Z,11.70
2019-02-26T11:46:49.299Z,11.70
2019-02-26T11:53:03.195Z,11.70
2019-02-26T11:55:54.977Z,11.80
2019-02-26T11:58:43.884Z,11.80
2019-02-26T12:01:29.192Z,11.90
2019-02-26T12:04:13.966Z,11.90
2019-02-26T12:06:55.803Z,12.10
2019-02-26T12:09:40.827Z,12.10
2019-02-26T12:12:25.636Z,12.20
2019-02-26T12:15:11.958Z,12.10
2019-02-26T12:21:02.712Z,12.10
2019-02-26T12:23:46.718Z,12.00
2019-02-26T12:29:54.518Z,12.10
2019-02-26T12:36:01.978Z,12.20
2019-02-26T12:38:44.381Z,12.50
2019-02-26T12:41:26.468Z,12.50
2019-02-26T12:44:11.423Z,12.70
2019-02-26T12:46:53.802Z,13.10
2019-02-26T12:49:38.535Z,13.00
2019-02-26T12:52:21.909Z,13.20
2019-02-26T12:55:07.555Z,13.30
2019-02-26T13:01:12.466Z,13.30
2019-02-26T13:03:55.100Z,13.20
2019-02-26T13:06:56.542Z,13.30
2019-02-26T13:09:27.006Z,13.40
2019-02-26T13:12:20.255Z,13.30
2019-02-26T13:15:09.440Z,13.40
2019-02-26T13:18:17.042Z,13.40
2019-02-26T13:21:00.520Z,13.40
2019-02-26T13:23:40.682Z,13.30
2019-02-26T13:26:24.565Z,13.30
2019-02-26T13:29:07.262Z,13.30
2019-02-26T13:31:56.193Z,13.40
2019-02-26T13:34:33.067Z,13.30
2019-02-26T13:37:15.470Z,13.40
2019-02-26T13:39:57.720Z,13.40
2019-02-26T13:42:39.952Z,13.50
2019-02-26T13:45:22.142Z,13.70
2019-02-26T13:48:04.186Z,13.80
2019-02-26T13:50:48.226Z,13.80
2019-02-26T13:53:30.441Z,13.90
2019-02-26T13:56:12.732Z,14.00
2019-02-26T13:58:54.769Z,13.90
2019-02-26T14:01:37.083Z,13.80
2019-02-26T14:04:18.881Z,13.90
2019-02-26T14:07:00.719Z,14.00
2019-02-26T14:09:43.685Z,13.90
2019-02-26T14:12:26.292Z,14.00
2019-02-26T14:15:08.944Z,13.80
2019-02-26T14:17:51.427Z,13.90
2019-02-26T14:20:34.050Z,14.00
2019-02-26T14:23:16.578Z,13.90
2019-02-26T14:25:58.459Z,14.20
2019-02-26T14:28:41.029Z,14.20
2019-02-26T14:31:23.014Z,14.50
2019-02-26T14:34:05.353Z,14.90
2019-02-26T14:36:47.399Z,15.70
2019-02-26T14:39:36.239Z,16.80
2019-02-26T14:42:18.797Z,19.10
2019-02-26T14:45:01.661Z,21.80
2019-02-26T14:47:44.447Z,23.90
2019-02-26T14:50:30.687Z,25.50
2019-02-26T14:53:12.658Z,26.70
2019-02-26T14:55:54.846Z,27.60
2019-02-26T14:58:40.159Z,27.70
2019-02-26T15:01:22.145Z,28.00
2019-02-26T15:04:03.973Z,28.80
2019-02-26T15:06:49.578Z,28.80
2019-02-26T15:09:31.359Z,28.60
2019-02-26T15:12:13.410Z,29.00
2019-02-26T15:14:56.457Z,29.80
2019-02-26T15:17:39.206Z,29.80
2019-02-26T15:20:21.211Z,29.30
2019-02-26T15:26:28.897Z,28.20
2019-02-26T15:29:11.182Z,25.90
2019-02-26T15:35:06.585Z,22.00
2019-02-26T15:37:49.487Z,20.20
2019-02-26T15:40:44.993Z,19.10
2019-02-26T15:43:17.145Z,18.10
2019-02-26T15:46:07.602Z,17.40
2019-02-26T15:48:52.211Z,16.70
2019-02-26T15:51:36.296Z,16.20
2019-02-26T15:54:21.003Z,15.80
2019-02-26T15:57:07.163Z,15.60
2019-02-26T15:59:54.191Z,15.20
2019-02-26T16:02:39.409Z,15.00
2019-02-26T16:05:24.206Z,14.80
2019-02-26T16:08:06.665Z,14.70
2019-02-26T16:10:48.618Z,14.50
2019-02-26T16:13:31.001Z,14.40
2019-02-26T16:16:15.433Z,14.30
2019-02-26T16:19:00.337Z,14.10
2019-02-26T16:21:41.922Z,14.00
2019-02-26T16:24:26.236Z,13.90
2019-02-26T16:27:27.057Z,13.80
2019-02-26T16:30:13.778Z,13.70
2019-02-26T16:32:56.460Z,13.50
2019-02-26T16:35:39.166Z,13.40
2019-02-26T16:38:21.298Z,13.30
2019-02-26T16:41:04.897Z,13.20
2019-02-26T16:43:51.681Z,13.10
2019-02-26T16:46:31.298Z,13.10
2019-02-26T16:49:02.750Z,13.00
2019-02-26T16:51:54.943Z,13.00
2019-02-26T16:54:47.065Z,12.90
2019-02-26T16:57:17.917Z,12.80
2019-02-26T17:00:00.880Z,12.70
2019-02-26T17:02:33.861Z,12.70
2019-02-26T17:05:24.093Z,12.60
2019-02-26T17:07:55.054Z,12.50
2019-02-26T17:10:45.845Z,12.30
2019-02-26T17:13:28.829Z,12.30
2019-02-26T17:16:34.579Z,12.30
2019-02-26T17:22:12.927Z,12.10
2019-02-26T17:28:13.651Z,12.00
2019-02-26T17:30:44.115Z,12.00
2019-02-26T17:33:33.730Z,12.00
2019-02-26T17:36:15.879Z,11.90
2019-02-26T17:38:58.184Z,11.90
2019-02-26T17:41:40.279Z,11.80
2019-02-26T17:44:22.318Z,11.80
2019-02-26T17:47:04.558Z,11.70
2019-02-26T17:49:47.001Z,11.70
2019-02-26T17:52:29.405Z,11.60
2019-02-26T17:55:11.476Z,11.60
2019-02-26T17:57:53.626Z,11.60
2019-02-26T18:00:38.307Z,11.50
2019-02-26T18:03:20.830Z,11.40
2019-02-26T18:06:03.259Z,11.40
2019-02-26T18:08:45.406Z,11.30
2019-02-26T18:11:27.456Z,11.30
2019-02-26T18:14:10.335Z,11.20
2019-02-26T18:16:52.257Z,11.20
2019-02-26T18:19:34.475Z,11.10
2019-02-26T18:22:17.170Z,11.10
2019-02-26T18:24:59.385Z,11.10
2019-02-26T18:27:41.430Z,11.10
2019-02-26T18:30:23.516Z,11.00
2019-02-26T18:33:05.370Z,10.90
2019-02-26T18:35:49.441Z,10.90
2019-02-26T18:38:31.457Z,10.80
2019-02-26T18:41:18.895Z,10.80
2019-02-26T18:44:09.533Z,10.70
2019-02-26T18:47:00.578Z,10.70
2019-02-26T18:49:42.571Z,10.60
2019-02-26T18:52:25.952Z,10.60
2019-02-26T18:55:09.065Z,10.60
2019-02-26T18:57:54.445Z,10.50
2019-02-26T19:00:37.135Z,10.50
2019-02-26T19:03:19.235Z,10.40
2019-02-26T19:06:03.619Z,10.40
2019-02-26T19:08:45.896Z,10.20
2019-02-26T19:11:31.288Z,10.40
2019-02-26T19:14:13.162Z,10.40
2019-02-26T19:16:57.066Z,10.30
2019-02-26T19:19:42.081Z,10.40
2019-02-26T19:25:50.766Z,10.30
2019-02-26T19:28:33.037Z,10.20
2019-02-26T19:31:15.270Z,10.20
2019-02-26T19:33:57.223Z,10.20
2019-02-26T19:36:39.658Z,10.00
2019-02-26T19:39:21.577Z,10.00
2019-02-26T19:45:23.803Z,10.00
2019-02-26T19:48:05.610Z,10.00
2019-02-26T19:50:51.092Z,9.90
2019-02-26T19:56:30.229Z,9.80
2019-02-26T19:59:13.767Z,9.80
2019-02-26T20:01:49.251Z,9.70
2019-02-26T20:04:34.039Z,9.70
2019-02-26T20:07:17.837Z,9.70
2019-02-26T20:10:00.554Z,9.70
2019-02-26T20:12:48.429Z,9.60
2019-02-26T20:15:30.533Z,9.60
2019-02-26T20:18:20.676Z,9.60
2019-02-26T20:20:58.735Z,9.40
2019-02-26T20:23:41.980Z,9.40
2019-02-26T20:26:25.546Z,9.40
2019-02-26T20:32:32.993Z,9.30
2019-02-26T20:35:35.578Z,9.20
2019-02-26T20:38:19.292Z,9.20
2019-02-26T20:41:04.251Z,9.00
2019-02-26T20:43:48.821Z,9.10
2019-02-26T20:46:31.193Z,9.20
2019-02-26T20:49:13.617Z,9.10
2019-02-26T20:51:59.465Z,9.10
2019-02-26T20:54:39.880Z,9.00
2019-02-26T20:57:22.303Z,8.90
2019-02-26T21:00:04.370Z,8.90
2019-02-26T21:02:48.221Z,8.70
2019-02-26T21:05:38.851Z,8.50
2019-02-26T21:08:30.704Z,8.20
2019-02-26T21:11:13.169Z,8.00
2019-02-26T21:13:55.751Z,8.10
2019-02-26T21:16:38.182Z,8.20
2019-02-26T21:19:22.824Z,8.30
2019-02-26T21:22:05.604Z,8.30
2019-02-26T21:24:52.885Z,8.40
2019-02-26T21:27:35.608Z,8.40
2019-02-26T21:30:22.990Z,8.30
2019-02-26T21:32:57.846Z,8.30
2019-02-26T21:35:33.656Z,8.00
2019-02-26T21:38:23.317Z,8.00
2019-02-26T21:40:55.062Z,7.80
2019-02-26T21:43:38.802Z,7.80
2019-02-26T21:46:22.736Z,7.80
2019-02-26T21:49:07.553Z,7.70
2019-02-26T21:51:52.410Z,7.60
2019-02-26T21:54:36.009Z,7.60
2019-02-26T22:54:56.340Z,7.20
2019-02-26T22:57:38.093Z,7.30
2019-02-26T23:00:21.425Z,7.20
2019-02-26T23:03:05.489Z,7.30
2019-02-26T23:05:48.470Z,7.20
2019-02-26T23:08:31.048Z,7.10
2019-02-26T23:11:13.593Z,7.00
2019-02-26T23:13:57.120Z,6.80
2019-02-26T23:16:40.931Z,6.90
2019-02-26T23:19:23.363Z,6.90
2019-02-26T23:22:05.359Z,6.80
2019-02-26T23:24:47.474Z,6.70
2019-02-26T23:27:29.914Z,6.60
2019-02-26T23:30:13.182Z,6.70
2019-02-26T23:32:57.900Z,6.70
2019-02-26T23:35:39.621Z,6.70
2019-02-26T23:38:21.881Z,6.70
2019-02-26T23:41:04.137Z,6.70
2019-02-26T23:43:46.364Z,6.70
2019-02-26T23:46:29.752Z,6.70
2019-02-26T23:49:14.066Z,6.80
2019-02-26T23:51:55.707Z,6.60
2019-02-26T23:54:40.029Z,6.50
2019-02-26T23:57:22.768Z,6.30
